Terminal Aerodrome Forecast
Issued by NWS

Home | Current Version | Previous Version | Text Only | Print | Product List | Glossary On
Versions: 1 2 3 4 5 6 7 8 9 10 11 12 13 14 15
000
FTUS43 KIND 290500
TAFHUF
TAF
KHUF 290520Z 2906/3006 13004KT P6SM SKC
     FM290900 15007KT P6SM SCT100 BKN250
     FM291500 18016G24KT P6SM SCT100 OVC250
     FM291900 19018G28KT P6SM BKN050 OVC080
      TEMPO 2920/2924 6SM -RA
     FM300000 22013KT P6SM OVC025=

USA.gov is the U.S. government's official web portal to all federal, state and local government web resources and services.